Time;durP1;ratioP1;P1;durP2;ratioP2;P2;SDS_P1;SDS_P2;PMS_P1;PMS_P2;Temp;Humidity;BMP_temperature;BMP_pressure;BME280_temperature;BME280_humidity;BME280_pressure;Samples;Min_cycle;Max_cycle;Signal;HPM_P1;HPM_P2
2023/11/30 00:00:32;;;;;;;18.40;6.87;;;1.20;98.00;;;;;;4952161;29;20847;-67
2023/11/30 00:03:00;;;;;;;17.30;6.37;;;1.20;98.00;;;;;;4953420;28;20470;-68
2023/11/30 00:05:27;;;;;;;15.10;5.90;;;1.20;98.00;;;;;;4951979;29;20505;-67
2023/11/30 00:07:56;;;;;;;20.20;6.60;;;1.10;98.00;;;;;;4953450;28;20521;-67
2023/11/30 00:10:22;;;;;;;16.23;6.00;;;1.10;98.00;;;;;;4953341;28;20454;-67
2023/11/30 00:12:49;;;;;;;15.50;5.97;;;0.90;98.00;;;;;;5227406;23;20513;-64
2023/11/30 00:15:16;;;;;;;13.70;6.00;;;0.90;98.00;;;;;;4953362;28;20454;-65
2023/11/30 00:17:43;;;;;;;14.90;5.40;;;0.80;98.00;;;;;;4953328;28;20709;-64
2023/11/30 00:20:12;;;;;;;15.00;6.23;;;0.80;98.00;;;;;;4953275;28;20552;-65
2023/11/30 00:22:40;;;;;;;13.60;6.23;;;0.80;98.00;;;;;;4953127;28;20470;-66
2023/11/30 00:25:08;;;;;;;13.97;5.63;;;0.90;98.00;;;;;;4953128;28;20549;-64
2023/11/30 00:27:35;;;;;;;11.27;5.37;;;0.80;98.00;;;;;;4953253;28;20999;-64
2023/11/30 00:30:02;;;;;;;12.43;5.57;;;0.90;98.00;;;;;;4953112;28;20454;-64
2023/11/30 00:32:31;;;;;;;17.33;6.37;;;0.90;98.00;;;;;;4953292;28;20496;-65
2023/11/30 00:34:59;;;;;;;14.10;5.40;;;0.70;98.00;;;;;;4953354;28;20488;-65
2023/11/30 00:37:27;;;;;;;11.90;6.03;;;0.70;98.00;;;;;;4953405;28;20468;-67
2023/11/30 00:39:54;;;;;;;11.70;5.80;;;0.60;98.00;;;;;;4953279;28;20465;-64
2023/11/30 00:42:22;;;;;;;10.23;5.40;;;0.60;98.00;;;;;;4953253;28;20836;-64
2023/11/30 00:44:49;;;;;;;9.53;4.53;;;0.60;98.00;;;;;;4953028;28;20500;-64
2023/11/30 00:47:16;;;;;;;13.03;6.20;;;0.50;98.00;;;;;;4953091;28;20876;-64
2023/11/30 00:49:44;;;;;;;12.70;5.40;;;0.60;98.00;;;;;;4952997;28;20454;-64
2023/11/30 00:52:12;;;;;;;13.90;5.40;;;0.70;98.00;;;;;;4952949;28;21021;-64
2023/11/30 00:54:41;;;;;;;15.80;5.77;;;0.80;98.00;;;;;;4954181;28;20461;-64
2023/11/30 00:57:08;;;;;;;14.00;5.80;;;0.70;98.00;;;;;;4956665;28;20530;-64
2023/11/30 00:59:35;;;;;;;12.37;5.63;;;0.60;98.00;;;;;;4956636;28;20553;-65
2023/11/30 01:02:02;;;;;;;11.47;5.30;;;0.50;98.00;;;;;;4956692;28;20983;-65
2023/11/30 01:04:29;;;;;;;13.60;6.17;;;0.50;98.00;;;;;;4956508;28;20457;-65
2023/11/30 01:06:56;;;;;;;15.37;5.97;;;0.60;98.00;;;;;;4956557;28;20855;-65
2023/11/30 01:09:23;;;;;;;15.27;6.50;;;0.60;98.00;;;;;;4971349;28;20874;-65
2023/11/30 01:11:51;;;;;;;16.27;6.53;;;0.60;98.00;;;;;;4956444;28;20458;-64
2023/11/30 01:14:19;;;;;;;17.90;6.43;;;0.60;98.00;;;;;;4956346;28;20509;-65
2023/11/30 01:16:46;;;;;;;16.53;6.80;;;0.60;98.00;;;;;;4956195;28;20454;-64
2023/11/30 01:19:13;;;;;;;12.87;6.10;;;0.50;98.00;;;;;;4956414;28;20830;-66
2023/11/30 01:21:40;;;;;;;9.57;4.87;;;0.50;98.00;;;;;;4970528;28;20647;-64
2023/11/30 01:24:08;;;;;;;7.20;4.40;;;0.40;98.00;;;;;;4956175;28;20521;-64
2023/11/30 01:26:35;;;;;;;12.70;4.53;;;0.40;98.00;;;;;;4954861;28;20457;-64
2023/11/30 01:29:04;;;;;;;10.90;4.80;;;0.50;98.00;;;;;;4956171;28;20866;-64
2023/11/30 01:31:33;;;;;;;9.80;4.90;;;0.50;98.00;;;;;;4956063;28;20554;-64
2023/11/30 01:34:00;;;;;;;11.33;4.23;;;0.50;98.00;;;;;;4970735;28;20525;-65
2023/11/30 01:36:27;;;;;;;8.23;4.10;;;0.40;98.00;;;;;;4955950;28;20893;-64
2023/11/30 01:38:54;;;;;;;7.43;4.03;;;0.30;98.00;;;;;;4970537;28;20458;-64
2023/11/30 01:41:21;;;;;;;9.53;4.90;;;0.40;98.00;;;;;;4955844;28;20477;-65
2023/11/30 01:43:48;;;;;;;11.80;5.40;;;0.50;98.00;;;;;;4955811;28;20512;-65
2023/11/30 01:46:16;;;;;;;10.77;5.00;;;0.50;98.00;;;;;;4955687;28;20988;-64
2023/11/30 01:48:44;;;;;;;7.67;4.10;;;0.60;98.00;;;;;;4955851;28;20825;-65
2023/11/30 01:51:11;;;;;;;9.67;4.30;;;0.70;98.00;;;;;;4970395;28;20689;-64
2023/11/30 01:53:41;;;;;;;9.50;4.40;;;0.60;98.00;;;;;;4955512;28;20481;-64
2023/11/30 01:56:09;;;;;;;9.97;4.47;;;0.60;98.00;;;;;;4955671;28;20465;-64
2023/11/30 01:58:37;;;;;;;8.60;3.93;;;0.70;98.00;;;;;;4955619;28;20458;-65
2023/11/30 02:01:04;;;;;;;7.77;3.80;;;0.60;98.00;;;;;;4955398;28;20456;-63
2023/11/30 02:03:33;;;;;;;7.07;4.30;;;0.50;98.00;;;;;;4955524;28;20478;-64
2023/11/30 02:06:01;;;;;;;10.07;4.30;;;0.40;98.00;;;;;;4954483;28;20461;-64
2023/11/30 02:08:27;;;;;;;12.33;5.03;;;0.40;98.00;;;;;;4955374;28;20446;-65
2023/11/30 02:10:55;;;;;;;13.23;5.00;;;0.40;98.00;;;;;;4955510;28;20453;-65
2023/11/30 02:13:22;;;;;;;12.13;4.83;;;0.40;98.00;;;;;;4970139;28;21021;-65
2023/11/30 02:15:49;;;;;;;10.20;4.40;;;0.40;98.00;;;;;;4955286;28;20460;-64
2023/11/30 02:18:16;;;;;;;9.47;4.90;;;0.40;98.00;;;;;;4955357;28;20458;-64
2023/11/30 02:20:44;;;;;;;9.10;4.70;;;0.40;98.00;;;;;;4955210;28;20504;-65
2023/11/30 02:23:14;;;;;;;10.90;4.93;;;0.50;98.00;;;;;;4955594;28;20461;-64
2023/11/30 02:25:42;;;;;;;12.37;5.77;;;0.50;98.00;;;;;;4955454;28;20462;-64
2023/11/30 02:28:09;;;;;;;15.10;4.70;;;0.50;98.00;;;;;;4955365;28;20959;-64
2023/11/30 02:30:37;;;;;;;8.83;4.40;;;0.50;98.00;;;;;;4955114;28;20458;-64
2023/11/30 02:33:05;;;;;;;11.07;5.27;;;0.50;98.00;;;;;;4955088;28;20482;-64
2023/11/30 02:35:31;;;;;;;10.27;4.93;;;0.50;98.00;;;;;;4969679;28;20462;-64
2023/11/30 02:37:58;;;;;;;9.83;4.83;;;0.50;98.00;;;;;;4955002;28;20455;-65
2023/11/30 02:40:27;;;;;;;9.20;3.90;;;0.50;98.00;;;;;;4954847;28;20454;-65
2023/11/30 02:42:54;;;;;;;10.53;4.90;;;0.50;98.00;;;;;;4954814;28;20838;-64
2023/11/30 02:45:21;;;;;;;15.20;5.57;;;0.50;98.00;;;;;;4954763;28;20526;-64
2023/11/30 02:47:48;;;;;;;13.43;4.60;;;0.50;98.00;;;;;;4954786;28;20472;-64
2023/11/30 02:50:15;;;;;;;9.73;4.83;;;0.40;98.00;;;;;;4969386;28;20551;-64
2023/11/30 02:52:42;;;;;;;11.07;5.00;;;0.30;98.00;;;;;;4954684;28;20488;-64
2023/11/30 02:55:09;;;;;;;12.07;5.63;;;0.20;98.00;;;;;;4954452;28;20499;-65
2023/11/30 02:57:38;;;;;;;10.63;5.83;;;0.10;98.00;;;;;;4954690;28;20450;-66
2023/11/30 03:00:06;;;;;;;13.77;6.10;;;-0.10;98.00;;;;;;4954646;28;20458;-64
2023/11/30 03:02:33;;;;;;;14.43;5.90;;;0.00;98.00;;;;;;4954397;28;20466;-64
2023/11/30 03:05:01;;;;;;;13.17;5.50;;;0.00;98.00;;;;;;4954927;28;20505;-64
2023/11/30 03:07:28;;;;;;;9.57;4.80;;;0.00;98.00;;;;;;4955095;28;20446;-65
2023/11/30 03:09:56;;;;;;;11.63;5.30;;;0.20;98.00;;;;;;4954876;28;20449;-64
2023/11/30 03:12:23;;;;;;;10.23;4.50;;;0.20;98.00;;;;;;4954712;28;20465;-65
2023/11/30 03:14:52;;;;;;;8.10;4.10;;;0.20;98.00;;;;;;4954295;28;20490;-64
2023/11/30 03:17:19;;;;;;;11.00;4.83;;;0.10;98.00;;;;;;4954352;28;20548;-64
2023/11/30 03:19:46;;;;;;;17.17;5.93;;;0.00;98.00;;;;;;4954319;28;20525;-65
2023/11/30 03:22:13;;;;;;;15.27;6.00;;;-0.10;98.00;;;;;;4954174;28;20461;-64
2023/11/30 03:24:40;;;;;;;13.73;5.70;;;-0.10;98.00;;;;;;4953998;28;20470;-65
2023/11/30 03:27:11;;;;;;;9.53;5.27;;;0.00;98.00;;;;;;4954120;28;20468;-64
2023/11/30 03:29:38;;;;;;;10.90;5.50;;;0.00;98.00;;;;;;4954071;28;20462;-65
2023/11/30 03:32:07;;;;;;;14.30;5.47;;;0.00;98.00;;;;;;4953986;28;21069;-65
2023/11/30 03:34:34;;;;;;;8.43;4.33;;;0.00;98.00;;;;;;4952457;29;20517;-66
2023/11/30 03:37:01;;;;;;;10.63;4.77;;;0.00;98.00;;;;;;4953822;28;20465;-64
2023/11/30 03:39:28;;;;;;;9.73;4.07;;;0.20;98.00;;;;;;4953876;28;20880;-64
2023/11/30 03:41:55;;;;;;;8.10;4.10;;;0.20;98.00;;;;;;4953757;28;20793;-65
2023/11/30 03:44:22;;;;;;;9.53;4.90;;;0.30;98.00;;;;;;4953834;28;20473;-66
2023/11/30 03:46:49;;;;;;;8.30;4.20;;;0.30;98.00;;;;;;4952171;29;20458;-64
2023/11/30 03:49:18;;;;;;;9.63;4.67;;;0.30;98.00;;;;;;4968395;28;20464;-63
2023/11/30 03:51:45;;;;;;;8.07;4.27;;;0.20;98.00;;;;;;4968444;28;20548;-65
2023/11/30 03:54:12;;;;;;;9.00;4.40;;;0.20;98.00;;;;;;4953512;28;20492;-64
2023/11/30 03:56:39;;;;;;;8.07;4.27;;;0.20;98.00;;;;;;4953528;28;20461;-64
2023/11/30 03:59:06;;;;;;;9.30;4.53;;;0.20;98.00;;;;;;4953753;28;20813;-64
2023/11/30 04:01:33;;;;;;;7.17;3.87;;;0.20;98.00;;;;;;4953528;28;20460;-64
2023/11/30 04:04:00;;;;;;;7.17;3.73;;;0.20;98.00;;;;;;4968273;28;20950;-65
2023/11/30 04:06:29;;;;;;;7.67;3.83;;;0.20;98.00;;;;;;4968332;28;20868;-64
2023/11/30 04:08:56;;;;;;;12.50;4.63;;;0.30;98.00;;;;;;4968302;28;20457;-65
2023/11/30 04:11:24;;;;;;;6.90;4.00;;;0.30;98.00;;;;;;4953456;28;20462;-65
2023/11/30 04:13:51;;;;;;;12.17;3.93;;;0.20;98.00;;;;;;4953327;28;20495;-65
2023/11/30 04:16:18;;;;;;;7.80;3.90;;;0.20;98.00;;;;;;4953693;28;20478;-63
2023/11/30 04:18:45;;;;;;;9.10;4.20;;;0.20;98.00;;;;;;4953473;28;20527;-64
2023/11/30 04:21:12;;;;;;;8.13;3.93;;;0.10;98.00;;;;;;4953135;28;20469;-64
2023/11/30 04:23:41;;;;;;;7.67;4.07;;;0.10;98.00;;;;;;4953293;28;20457;-65
2023/11/30 04:26:08;;;;;;;8.40;3.90;;;0.20;98.00;;;;;;4953233;28;20866;-65
2023/11/30 04:28:38;;;;;;;9.03;4.20;;;0.30;98.00;;;;;;4952837;28;20834;-64
2023/11/30 04:31:06;;;;;;;7.40;3.93;;;0.40;98.00;;;;;;4952866;28;20975;-64
2023/11/30 04:33:33;;;;;;;5.70;3.30;;;0.40;98.00;;;;;;4952923;28;20453;-64
2023/11/30 04:36:00;;;;;;;6.90;3.90;;;0.30;98.00;;;;;;4953163;28;20481;-64
2023/11/30 04:38:27;;;;;;;8.87;4.20;;;0.20;98.00;;;;;;4967707;28;20491;-65
2023/11/30 04:40:56;;;;;;;10.73;5.00;;;0.20;98.00;;;;;;4967760;28;20461;-63
2023/11/30 04:43:23;;;;;;;9.47;4.63;;;0.30;98.00;;;;;;4953031;28;20468;-64
2023/11/30 04:45:50;;;;;;;8.67;3.60;;;0.30;98.00;;;;;;4953001;28;20524;-64
2023/11/30 04:48:17;;;;;;;6.33;4.00;;;0.30;98.00;;;;;;4953119;28;20825;-65
2023/11/30 04:50:44;;;;;;;12.27;4.73;;;0.30;98.00;;;;;;4952838;28;20473;-64
2023/11/30 04:53:11;;;;;;;8.80;4.17;;;0.30;98.00;;;;;;4951287;28;20457;-65
2023/11/30 04:55:38;;;;;;;9.80;4.07;;;0.40;98.00;;;;;;4967473;28;20489;-64
2023/11/30 04:58:06;;;;;;;10.00;4.47;;;0.50;98.00;;;;;;4953059;28;20454;-65
2023/11/30 05:00:33;;;;;;;7.17;3.87;;;0.50;98.00;;;;;;4952763;28;20943;-64
2023/11/30 05:03:00;;;;;;;8.13;3.57;;;0.40;98.00;;;;;;4952994;28;20472;-64
2023/11/30 05:05:28;;;;;;;9.70;4.00;;;0.20;98.00;;;;;;4952709;28;20994;-64
2023/11/30 05:07:55;;;;;;;12.90;4.23;;;0.20;98.00;;;;;;4952911;28;20456;-64
2023/11/30 05:10:22;;;;;;;9.47;4.00;;;0.20;98.00;;;;;;4952814;28;20452;-64
2023/11/30 05:12:49;;;;;;;8.80;3.80;;;0.20;98.00;;;;;;4952754;28;20895;-65
2023/11/30 05:15:17;;;;;;;14.70;3.90;;;0.20;98.00;;;;;;4952853;28;20587;-64
2023/11/30 05:17:44;;;;;;;10.37;4.30;;;0.00;98.00;;;;;;4952472;28;20474;-64
2023/11/30 05:20:12;;;;;;;11.00;4.20;;;0.00;98.00;;;;;;4952855;28;20457;-64
2023/11/30 05:22:39;;;;;;;11.47;4.70;;;0.10;98.00;;;;;;4967185;28;20520;-64
2023/11/30 05:25:08;;;;;;;9.63;4.57;;;0.20;98.00;;;;;;4967469;28;20464;-65
2023/11/30 05:27:34;;;;;;;7.60;4.23;;;0.30;98.00;;;;;;4952432;28;20559;-64
2023/11/30 05:30:03;;;;;;;8.97;4.70;;;0.30;98.00;;;;;;4952793;28;20457;-64
2023/11/30 05:32:38;;;;;;;7.93;4.00;;;0.30;98.00;;;;;;4952530;28;20509;-64
2023/11/30 05:35:07;;;;;;;9.47;4.37;;;0.10;98.00;;;;;;4933607;29;20496;-65
2023/11/30 05:37:34;;;;;;;9.60;4.90;;;0.00;98.00;;;;;;4932176;29;20459;-64
2023/11/30 05:40:01;;;;;;;10.70;4.10;;;-0.10;98.00;;;;;;4933523;29;20470;-64
2023/11/30 05:42:29;;;;;;;10.27;4.63;;;-0.10;98.00;;;;;;4935418;29;20524;-64
2023/11/30 05:44:56;;;;;;;14.70;4.93;;;-0.10;98.00;;;;;;4936582;29;20527;-65
2023/11/30 05:47:24;;;;;;;15.40;4.53;;;-0.10;98.00;;;;;;4936720;29;20549;-64
2023/11/30 05:49:54;;;;;;;8.67;4.60;;;-0.10;98.00;;;;;;4936693;29;20472;-64
2023/11/30 05:52:22;;;;;;;9.10;4.20;;;0.00;98.00;;;;;;4936609;29;20861;-63
2023/11/30 05:54:49;;;;;;;9.60;4.00;;;0.20;98.00;;;;;;4936532;29;20518;-64
2023/11/30 05:57:16;;;;;;;8.47;4.23;;;0.30;98.00;;;;;;4936675;29;20462;-66
2023/11/30 05:59:43;;;;;;;6.37;4.30;;;0.30;98.00;;;;;;4936564;29;20513;-65
2023/11/30 06:02:10;;;;;;;16.83;4.20;;;0.30;98.00;;;;;;4936540;29;20956;-65
2023/11/30 06:04:38;;;;;;;10.80;4.33;;;0.30;98.00;;;;;;4936845;29;21007;-64
2023/11/30 06:07:07;;;;;;;9.30;4.90;;;0.30;98.00;;;;;;4936599;29;20481;-64
2023/11/30 06:09:35;;;;;;;8.90;3.93;;;0.20;98.00;;;;;;4936389;29;20533;-64
2023/11/30 06:12:03;;;;;;;7.97;4.00;;;0.20;98.00;;;;;;4936263;29;20520;-64
2023/11/30 06:14:30;;;;;;;7.40;4.20;;;0.10;98.00;;;;;;4934928;29;20561;-64
2023/11/30 06:16:57;;;;;;;11.57;4.60;;;0.00;98.00;;;;;;4934824;29;20511;-65
2023/11/30 06:19:24;;;;;;;7.90;4.00;;;0.10;98.00;;;;;;4934750;29;20467;-64
2023/11/30 06:21:51;;;;;;;9.60;4.97;;;0.20;98.00;;;;;;4935030;29;20944;-64
2023/11/30 06:24:20;;;;;;;8.57;4.70;;;0.20;98.00;;;;;;4936013;29;20458;-64
2023/11/30 06:26:48;;;;;;;8.70;4.37;;;0.20;98.00;;;;;;4935925;29;20494;-65
2023/11/30 06:29:15;;;;;;;12.63;5.30;;;0.20;98.00;;;;;;4934783;29;20800;-65
2023/11/30 06:31:50;;;;;;;11.83;5.30;;;0.10;98.00;;;;;;4935702;29;20458;-64
2023/11/30 06:34:17;;;;;;;15.23;6.23;;;0.00;98.00;;;;;;4934713;29;20830;-64
2023/11/30 06:36:44;;;;;;;16.37;6.27;;;0.10;98.00;;;;;;4935732;29;20496;-65
2023/11/30 06:39:11;;;;;;;14.33;5.87;;;0.10;98.00;;;;;;4935683;29;20525;-64
2023/11/30 06:41:40;;;;;;;13.33;5.20;;;0.10;98.00;;;;;;4935651;29;20488;-65
2023/11/30 06:44:07;;;;;;;11.37;5.00;;;0.10;98.00;;;;;;4935727;29;20467;-65
2023/11/30 06:46:36;;;;;;;10.17;4.63;;;0.00;98.00;;;;;;4935519;29;20454;-64
2023/11/30 06:49:12;;;;;;;11.60;4.57;;;0.00;98.00;;;;;;4935699;29;20468;-64
2023/11/30 06:51:40;;;;;;;8.27;4.43;;;0.00;98.00;;;;;;4935252;29;20486;-64
2023/11/30 06:54:15;;;;;;;11.60;5.03;;;0.00;98.00;;;;;;4934342;29;20838;-64
2023/11/30 06:56:44;;;;;;;9.40;4.30;;;0.00;98.00;;;;;;4935502;29;20493;-64
2023/11/30 06:59:15;;;;;;;13.73;4.40;;;0.00;98.00;;;;;;4935283;29;20462;-64
2023/11/30 07:01:42;;;;;;;10.03;4.67;;;0.00;98.00;;;;;;4934030;29;20979;-63
2023/11/30 07:04:09;;;;;;;8.90;4.43;;;0.10;98.00;;;;;;4935423;29;20957;-64
2023/11/30 07:06:36;;;;;;;7.63;3.97;;;0.10;98.00;;;;;;4935229;29;20452;-66
2023/11/30 07:09:03;;;;;;;6.50;4.20;;;0.20;98.00;;;;;;4935224;29;20996;-62
2023/11/30 07:11:32;;;;;;;7.67;4.20;;;0.20;98.00;;;;;;4935073;29;20553;-61
2023/11/30 07:14:00;;;;;;;12.23;4.70;;;0.20;98.00;;;;;;4935028;29;20470;-62
2023/11/30 07:16:31;;;;;;;8.50;4.50;;;0.30;98.00;;;;;;4934936;29;20593;-61
2023/11/30 07:18:58;;;;;;;8.80;4.17;;;0.30;98.00;;;;;;4934864;29;20462;-62
2023/11/30 07:21:33;;;;;;;9.57;5.60;;;0.40;98.00;;;;;;4934964;29;20543;-62
2023/11/30 07:24:00;;;;;;;13.47;5.17;;;0.50;98.00;;;;;;4934962;29;20560;-62
2023/11/30 07:26:27;;;;;;;7.77;3.67;;;0.60;98.00;;;;;;4934840;29;20517;-61
2023/11/30 07:28:56;;;;;;;12.33;4.90;;;0.50;98.00;;;;;;4934851;29;20462;-61
2023/11/30 07:31:24;;;;;;;14.10;5.57;;;0.40;98.00;;;;;;4934729;29;20465;-61
2023/11/30 07:33:52;;;;;;;12.50;5.10;;;0.30;98.00;;;;;;4934764;29;20458;-62
2023/11/30 07:36:19;;;;;;;9.67;5.33;;;0.30;98.00;;;;;;4934799;29;20494;-61
2023/11/30 07:38:46;;;;;;;8.37;4.80;;;0.30;98.00;;;;;;4934589;29;20469;-61
2023/11/30 07:41:16;;;;;;;14.83;5.60;;;0.30;98.00;;;;;;4934649;29;20466;-61
2023/11/30 07:43:49;;;;;;;14.80;5.80;;;0.40;98.00;;;;;;4934621;29;20469;-61
2023/11/30 07:46:17;;;;;;;10.40;4.87;;;0.40;98.00;;;;;;4934763;29;20486;-62
2023/11/30 07:48:45;;;;;;;10.10;4.70;;;0.50;98.00;;;;;;4934750;29;21203;-62
2023/11/30 07:51:13;;;;;;;9.80;4.73;;;0.60;98.00;;;;;;4934608;29;20452;-61
2023/11/30 07:53:40;;;;;;;12.53;5.00;;;0.70;98.00;;;;;;4934365;29;20472;-61
2023/11/30 07:56:10;;;;;;;11.03;5.50;;;0.60;98.00;;;;;;4935122;29;21064;-61
2023/11/30 07:58:37;;;;;;;11.83;5.00;;;0.70;98.00;;;;;;4935663;29;20462;-61
2023/11/30 08:01:07;;;;;;;13.57;5.63;;;0.80;98.00;;;;;;4934155;29;21007;-61
2023/11/30 08:03:34;;;;;;;12.80;6.07;;;0.90;98.00;;;;;;4933864;29;20473;-61
2023/11/30 08:06:06;;;;;;;12.43;5.20;;;0.90;98.00;;;;;;4934282;29;20458;-61
2023/11/30 08:08:33;;;;;;;17.80;5.83;;;0.80;98.00;;;;;;4934472;29;20561;-61
2023/11/30 08:11:00;;;;;;;14.10;6.30;;;0.80;98.00;;;;;;4934467;29;20451;-62
2023/11/30 08:13:27;;;;;;;12.50;6.03;;;0.80;98.00;;;;;;4934289;29;20844;-61
2023/11/30 08:15:54;;;;;;;14.00;6.13;;;0.80;98.00;;;;;;4932987;29;20494;-61
2023/11/30 08:18:24;;;;;;;18.10;7.63;;;0.90;98.00;;;;;;4934203;29;20465;-62
2023/11/30 08:20:51;;;;;;;15.13;6.60;;;1.00;98.00;;;;;;4934213;29;20455;-61
2023/11/30 08:23:22;;;;;;;18.90;7.40;;;1.00;98.00;;;;;;4934250;29;21002;-61
2023/11/30 08:25:49;;;;;;;15.67;7.30;;;1.00;98.00;;;;;;4934156;29;20545;-62
2023/11/30 08:28:16;;;;;;;11.20;5.33;;;1.10;98.00;;;;;;4934225;29;20469;-61
2023/11/30 08:30:44;;;;;;;15.57;5.73;;;1.20;98.00;;;;;;4933935;29;20455;-61
2023/11/30 08:33:11;;;;;;;19.17;6.30;;;1.20;98.00;;;;;;4934162;29;20565;-62
2023/11/30 08:35:38;;;;;;;13.90;6.40;;;1.30;98.00;;;;;;4933920;29;20491;-61
2023/11/30 08:38:05;;;;;;;14.60;6.03;;;1.30;98.00;;;;;;4934145;29;20554;-61
2023/11/30 08:40:34;;;;;;;14.03;6.13;;;1.40;98.00;;;;;;4934120;29;20462;-61
2023/11/30 08:43:01;;;;;;;15.73;7.50;;;1.40;98.00;;;;;;4934288;29;20499;-61
2023/11/30 08:45:28;;;;;;;16.90;6.17;;;1.40;98.00;;;;;;4934357;29;20466;-61
2023/11/30 08:50:24;;;;;;;14.37;6.37;;;1.40;98.00;;;;;;4950388;28;20477;-61
2023/11/30 08:52:51;;;;;;;11.97;6.03;;;1.40;98.00;;;;;;4952592;29;20468;-61
2023/11/30 08:55:18;;;;;;;14.37;6.40;;;1.50;98.00;;;;;;4952727;29;20489;-61
2023/11/30 08:57:46;;;;;;;18.03;7.03;;;1.50;98.00;;;;;;4952563;28;20947;-62
2023/11/30 09:00:14;;;;;;;15.33;6.63;;;1.80;98.00;;;;;;4951588;29;20509;-61
2023/11/30 09:02:41;;;;;;;15.33;6.80;;;1.80;98.00;;;;;;4952658;28;20987;-61
2023/11/30 09:05:09;;;;;;;16.53;6.40;;;1.80;98.00;;;;;;4952656;29;20471;-61
2023/11/30 09:07:37;;;;;;;17.60;7.00;;;1.80;98.00;;;;;;4952615;28;20825;-62
2023/11/30 09:10:05;;;;;;;14.60;6.53;;;1.90;98.00;;;;;;4952407;29;20512;-61
2023/11/30 09:12:39;;;;;;;15.57;6.13;;;2.10;98.00;;;;;;4952758;28;20502;-62
2023/11/30 09:15:10;;;;;;;15.60;6.13;;;2.10;98.00;;;;;;4953881;28;20500;-62
2023/11/30 09:17:37;;;;;;;20.10;7.23;;;2.20;98.00;;;;;;4956384;28;20532;-62
2023/11/30 09:20:07;;;;;;;11.80;3.67;;;2.20;98.00;;;;;;4956496;29;20461;-65
2023/11/30 09:22:35;;;;;;;15.67;7.00;;;2.80;98.00;;;;;;4956518;29;21016;-62
2023/11/30 09:25:02;;;;;;;15.40;7.07;;;3.20;98.00;;;;;;4956257;28;20466;-62
2023/11/30 09:27:29;;;;;;;16.33;7.30;;;3.30;98.00;;;;;;4956240;29;20454;-62
2023/11/30 09:29:57;;;;;;;14.60;6.27;;;3.10;98.00;;;;;;4956467;28;20586;-62
2023/11/30 09:32:26;;;;;;;20.63;7.97;;;3.00;98.00;;;;;;4956568;29;20457;-62
2023/11/30 09:34:56;;;;;;;13.53;5.97;;;2.90;98.00;;;;;;4956567;29;20485;-62
2023/11/30 09:37:23;;;;;;;19.57;7.30;;;3.00;98.00;;;;;;4955066;29;20458;-62
2023/11/30 09:39:50;;;;;;;17.03;7.50;;;2.90;98.00;;;;;;4955864;28;20462;-62
2023/11/30 09:42:18;;;;;;;21.37;7.80;;;3.00;98.00;;;;;;4956189;29;20454;-62
2023/11/30 09:44:45;;;;;;;16.47;6.97;;;2.90;98.00;;;;;;4954907;29;20557;-62
2023/11/30 09:47:13;;;;;;;17.37;7.37;;;2.80;98.00;;;;;;4955908;29;20510;-62
2023/11/30 09:49:41;;;;;;;14.80;6.77;;;2.80;98.00;;;;;;4955606;28;20478;-61
2023/11/30 09:52:08;;;;;;;16.17;7.07;;;2.90;98.00;;;;;;4955783;29;20466;-62
2023/11/30 09:54:35;;;;;;;11.73;5.93;;;2.90;98.00;;;;;;4955815;29;20462;-62
2023/11/30 09:57:04;;;;;;;16.10;6.57;;;3.00;98.00;;;;;;4955832;29;20833;-64
2023/11/30 09:59:31;;;;;;;19.27;8.00;;;2.90;98.00;;;;;;4955893;28;20514;-62
2023/11/30 10:02:00;;;;;;;14.60;7.07;;;2.90;98.00;;;;;;4955937;29;20875;-62
2023/11/30 10:04:27;;;;;;;20.87;7.40;;;3.00;98.00;;;;;;4955647;29;20538;-62
2023/11/30 10:06:57;;;;;;;24.93;8.40;;;2.90;98.00;;;;;;4955632;29;20454;-62
2023/11/30 10:09:24;;;;;;;20.10;7.57;;;2.90;98.00;;;;;;4955520;28;20462;-62
2023/11/30 10:11:52;;;;;;;23.97;8.00;;;3.00;98.00;;;;;;4955261;28;20461;-62
2023/11/30 10:14:19;;;;;;;20.10;7.80;;;2.90;98.00;;;;;;4955555;28;20458;-62
2023/11/30 10:16:46;;;;;;;17.80;7.33;;;2.80;98.00;;;;;;4953993;29;20490;-62
2023/11/30 10:19:13;;;;;;;13.27;6.40;;;2.80;98.00;;;;;;4954994;28;20463;-62
2023/11/30 10:21:41;;;;;;;17.53;7.90;;;2.90;98.00;;;;;;4954999;29;21105;-62
2023/11/30 10:24:10;;;;;;;18.40;7.07;;;2.90;98.00;;;;;;4954758;28;20529;-62
2023/11/30 10:26:38;;;;;;;18.47;8.10;;;2.90;98.00;;;;;;4954222;28;20950;-62
2023/11/30 10:29:06;;;;;;;19.43;8.70;;;2.80;98.00;;;;;;4954964;29;20474;-62
2023/11/30 10:31:36;;;;;;;15.33;6.27;;;2.80;98.00;;;;;;4954824;29;20517;-62
2023/11/30 10:34:09;;;;;;;16.57;7.20;;;3.50;98.00;;;;;;4953816;29;20474;-62
2023/11/30 10:36:40;;;;;;;18.00;7.90;;;3.70;98.00;;;;;;4954815;29;20589;-62
2023/11/30 10:39:16;;;;;;;16.97;7.50;;;3.80;98.00;;;;;;4953786;29;20459;-62
2023/11/30 10:41:52;;;;;;;18.53;7.93;;;3.80;98.00;;;;;;4954599;29;20495;-62
2023/11/30 10:44:26;;;;;;;18.00;7.80;;;3.80;98.00;;;;;;4951862;29;20467;-62
2023/11/30 10:46:55;;;;;;;16.30;7.73;;;3.80;98.00;;;;;;4959800;28;20558;-62
2023/11/30 10:49:24;;;;;;;18.53;7.27;;;3.60;98.00;;;;;;4967878;28;20460;-63
2023/11/30 10:51:52;;;;;;;15.33;7.30;;;3.60;98.00;;;;;;4973420;28;20497;-62
2023/11/30 10:54:30;;;;;;;25.43;8.93;;;3.70;98.00;;;;;;4973761;28;20461;-62
2023/11/30 10:56:59;;;;;;;19.03;8.87;;;3.80;98.00;;;;;;4953343;28;20505;-62
2023/11/30 10:59:29;;;;;;;18.73;7.90;;;3.80;98.00;;;;;;4962071;28;20453;-62
2023/11/30 11:01:57;;;;;;;17.17;8.37;;;3.80;98.00;;;;;;4958497;28;20822;-62
2023/11/30 11:04:25;;;;;;;18.13;8.03;;;3.70;98.00;;;;;;4959096;28;20450;-62
2023/11/30 11:07:01;;;;;;;21.93;9.23;;;3.70;98.00;;;;;;4954971;28;20459;-62
2023/11/30 11:09:41;;;;;;;19.20;7.63;;;3.70;98.00;;;;;;4955110;28;20450;-62
2023/11/30 11:12:19;;;;;;;20.53;9.20;;;3.80;98.00;;;;;;4953787;29;20466;-62
2023/11/30 11:14:49;;;;;;;16.17;7.67;;;3.90;98.00;;;;;;4954798;28;20550;-62
2023/11/30 11:17:16;;;;;;;26.00;8.53;;;4.10;98.00;;;;;;4954507;28;20615;-62
2023/11/30 11:19:45;;;;;;;20.40;9.07;;;4.00;98.00;;;;;;4962093;28;20458;-62
2023/11/30 11:22:23;;;;;;;23.27;8.07;;;4.00;98.00;;;;;;4973886;28;20541;-62
2023/11/30 11:24:57;;;;;;;26.67;8.00;;;4.10;98.00;;;;;;4973946;28;20467;-62
2023/11/30 11:27:28;;;;;;;20.83;7.77;;;4.20;98.00;;;;;;4973792;28;20592;-63
2023/11/30 11:29:58;;;;;;;26.50;8.87;;;4.30;98.00;;;;;;4973689;28;20512;-62
2023/11/30 11:32:26;;;;;;;22.33;8.27;;;4.20;98.00;;;;;;4973594;28;20465;-62
2023/11/30 11:34:54;;;;;;;21.83;8.40;;;4.10;98.00;;;;;;4973702;28;20464;-62
2023/11/30 11:37:21;;;;;;;17.83;8.57;;;4.20;98.00;;;;;;4973189;28;20488;-62
2023/11/30 11:39:51;;;;;;;21.80;8.40;;;4.20;98.00;;;;;;4972305;28;20506;-62
2023/11/30 11:42:20;;;;;;;20.57;8.47;;;4.10;98.00;;;;;;4973011;28;20451;-62
2023/11/30 11:44:49;;;;;;;19.60;8.50;;;4.00;98.00;;;;;;4973173;28;20549;-63
2023/11/30 11:47:17;;;;;;;22.07;8.60;;;4.00;98.00;;;;;;4973475;28;20501;-63
2023/11/30 11:49:46;;;;;;;25.90;8.70;;;4.00;98.00;;;;;;4973303;28;20462;-62
2023/11/30 11:52:20;;;;;;;21.10;7.87;;;4.20;98.00;;;;;;4973134;28;20952;-62
2023/11/30 11:54:47;;;;;;;18.90;7.37;;;4.30;98.00;;;;;;4973047;28;20461;-63
2023/11/30 11:57:14;;;;;;;19.17;8.87;;;4.40;98.00;;;;;;4972206;28;20497;-62
2023/11/30 11:59:43;;;;;;;19.20;8.60;;;4.50;98.00;;;;;;4973206;28;20510;-62
2023/11/30 12:02:19;;;;;;;22.57;9.00;;;4.60;98.00;;;;;;4972855;28;20875;-62
2023/11/30 12:04:46;;;;;;;21.80;9.10;;;4.60;98.00;;;;;;4972121;28;20490;-62
2023/11/30 12:07:15;;;;;;;23.40;8.43;;;4.60;98.00;;;;;;4972918;28;20462;-62
2023/11/30 12:09:42;;;;;;;24.30;8.40;;;4.40;98.00;;;;;;4973290;28;20458;-62
2023/11/30 12:12:09;;;;;;;25.17;8.57;;;4.40;98.00;;;;;;5318673;23;20540;-61
2023/11/30 12:14:36;;;;;;;19.10;8.00;;;4.30;98.00;;;;;;4953943;28;20470;-61
2023/11/30 12:17:06;;;;;;;18.13;7.50;;;4.40;98.00;;;;;;4964822;28;20537;-61
2023/11/30 12:19:33;;;;;;;24.83;9.00;;;4.40;98.00;;;;;;4934582;29;20974;-61
2023/11/30 12:22:01;;;;;;;25.37;8.27;;;4.60;98.00;;;;;;4934148;29;20474;-61
2023/11/30 12:24:28;;;;;;;20.90;8.47;;;4.60;98.00;;;;;;4934426;29;20459;-61
2023/11/30 12:26:55;;;;;;;18.53;8.70;;;4.80;98.00;;;;;;4934485;29;20464;-61
2023/11/30 12:29:22;;;;;;;16.87;7.47;;;4.90;98.00;;;;;;4934339;29;20930;-61
2023/11/30 12:32:00;;;;;;;15.90;7.43;;;4.90;98.00;;;;;;4934407;29;20461;-61
2023/11/30 12:34:28;;;;;;;17.63;7.27;;;4.90;98.00;;;;;;4934401;29;20464;-61
2023/11/30 12:36:55;;;;;;;13.87;6.50;;;4.90;98.00;;;;;;4934414;29;20545;-61
2023/11/30 12:39:23;;;;;;;15.67;6.63;;;4.90;98.00;;;;;;4934336;29;20560;-61
2023/11/30 12:41:50;;;;;;;15.87;6.00;;;4.70;98.00;;;;;;4934234;29;20458;-61
2023/11/30 12:44:17;;;;;;;12.90;5.63;;;4.70;98.00;;;;;;4934618;29;20492;-61
2023/11/30 12:46:44;;;;;;;17.17;6.80;;;4.60;98.00;;;;;;4965231;28;20455;-60
2023/11/30 12:49:11;;;;;;;11.63;5.30;;;4.60;98.00;;;;;;4934853;29;21273;-60
2023/11/30 12:51:40;;;;;;;14.83;6.93;;;4.60;98.00;;;;;;4969045;28;20463;-61
2023/11/30 12:54:07;;;;;;;16.70;6.27;;;4.60;98.00;;;;;;4938709;29;20539;-60
2023/11/30 12:56:34;;;;;;;13.77;6.07;;;4.60;98.00;;;;;;4938600;29;20579;-60